Time;durP1;ratioP1;P1;durP2;ratioP2;P2;SDS_P1;SDS_P2;PMS_P1;PMS_P2;Temp;Humidity;BMP_temperature;BMP_pressure;BME280_temperature;BME280_humidity;BME280_pressure;Samples;Min_cycle;Max_cycle;Signal;HPM_P1;HPM_P2
2022/10/28 00:01:08;;;;;;;12.63;6.37;;;;;;;12.83;100.00;100903.53;5029646;28;20952;-52
2022/10/28 00:03:40;;;;;;;10.20;6.87;;;;;;;12.87;100.00;100913.19;5029692;28;20812;-49
2022/10/28 00:06:10;;;;;;;8.30;7.33;;;;;;;12.95;100.00;100910.31;5029719;28;20868;-49
2022/10/28 00:08:36;;;;;;;10.20;6.47;;;;;;;12.91;100.00;100904.22;5029489;28;20965;-50
2022/10/28 00:11:14;;;;;;;14.03;7.00;;;;;;;12.88;100.00;100908.72;5022960;28;20507;-48
2022/10/28 00:13:42;;;;;;;10.90;6.50;;;;;;;13.06;100.00;100916.25;5025027;28;20499;-49
2022/10/28 00:16:17;;;;;;;20.13;6.83;;;;;;;12.95;100.00;100911.19;5029310;28;20456;-50
2022/10/28 00:18:45;;;;;;;31.80;8.20;;;;;;;13.04;100.00;100907.41;5029729;28;20621;-49
2022/10/28 00:21:14;;;;;;;13.13;8.70;;;;;;;13.07;100.00;100930.47;5029641;28;20430;-49
2022/10/28 00:23:41;;;;;;;8.93;5.40;;;;;;;13.07;100.00;100925.13;5029213;28;20476;-49
2022/10/28 00:26:14;;;;;;;9.70;6.80;;;;;;;13.02;100.00;100914.59;5019195;28;21007;-49
2022/10/28 00:28:43;;;;;;;17.73;6.03;;;;;;;12.82;100.00;100904.47;5027336;28;20452;-50
2022/10/28 00:31:11;;;;;;;15.40;8.50;;;;;;;12.82;100.00;100906.25;5029364;28;20430;-51
2022/10/28 00:33:38;;;;;;;8.40;6.97;;;;;;;12.75;100.00;100894.88;5017796;28;20499;-51
2022/10/28 00:36:19;;;;;;;13.70;8.17;;;;;;;12.84;100.00;100902.63;5028925;28;20544;-51
2022/10/28 00:38:48;;;;;;;13.33;7.80;;;;;;;13.27;100.00;100901.41;5028561;28;20514;-50
2022/10/28 00:41:27;;;;;;;14.07;7.70;;;;;;;13.32;100.00;100892.34;5021655;28;20518;-49
2022/10/28 00:43:56;;;;;;;7.43;6.70;;;;;;;13.16;100.00;100899.03;5029014;28;20468;-51
2022/10/28 00:46:28;;;;;;;9.43;6.73;;;;;;;13.12;100.00;100897.38;5029064;28;20922;-50
2022/10/28 00:49:10;;;;;;;19.60;9.17;;;;;;;13.17;100.00;100906.13;5029112;28;20451;-54
2022/10/28 00:51:36;;;;;;;14.97;8.00;;;;;;;13.26;100.00;100903.22;5028876;28;21016;-50
2022/10/28 00:54:05;;;;;;;19.60;8.10;;;;;;;13.28;100.00;100903.16;5029110;28;20550;-51
2022/10/28 00:56:36;;;;;;;18.37;9.37;;;;;;;13.18;100.00;100901.66;5002652;28;20513;-51
2022/10/28 00:59:07;;;;;;;14.03;8.70;;;;;;;13.27;100.00;100894.28;5028927;28;20821;-50
2022/10/28 01:01:33;;;;;;;10.47;6.30;;;;;;;13.22;100.00;100904.22;5028888;28;20517;-51
2022/10/28 01:04:00;;;;;;;10.67;7.33;;;;;;;13.24;100.00;100913.06;5028499;28;20529;-49
2022/10/28 01:06:27;;;;;;;10.57;6.07;;;;;;;13.29;100.00;100908.47;5029011;28;20429;-50
2022/10/28 01:08:54;;;;;;;14.33;8.20;;;;;;;13.25;100.00;100911.25;5028686;28;20456;-50
2022/10/28 01:11:58;;;;;;;10.87;6.77;;;;;;;13.30;100.00;100909.34;5028602;28;20847;-52
2022/10/28 01:15:14;;;;;;;14.63;7.33;;;;;;;13.34;100.00;100895.84;5003602;28;20536;-51
2022/10/28 01:17:46;;;;;;;8.83;7.10;;;;;;;13.40;100.00;100902.78;5016227;28;20463;-50
2022/10/28 01:20:50;;;;;;;6.63;6.00;;;;;;;13.19;100.00;100898.09;5028720;28;20845;-50
2022/10/28 01:23:35;;;;;;;28.07;9.03;;;;;;;13.16;100.00;100888.38;5028621;28;20495;-53
2022/10/28 01:26:16;;;;;;;10.87;7.20;;;;;;;12.97;100.00;100885.34;4999046;28;20428;-51
2022/10/28 01:28:57;;;;;;;9.40;6.40;;;;;;;13.00;100.00;100885.25;5027345;28;20455;-51
2022/10/28 01:31:39;;;;;;;17.13;5.90;;;;;;;13.19;100.00;100877.63;5028715;28;20489;-50
2022/10/28 01:34:32;;;;;;;12.87;6.67;;;;;;;13.16;100.00;100871.47;5017958;28;20495;-50
2022/10/28 01:37:02;;;;;;;8.13;7.37;;;;;;;13.41;100.00;100874.28;5027384;28;20426;-50
2022/10/28 01:39:58;;;;;;;10.17;8.00;;;;;;;13.31;100.00;100882.59;5027192;28;20995;-50
2022/10/28 01:42:30;;;;;;;10.33;5.97;;;;;;;13.47;100.00;100882.13;5021728;28;20518;-50
2022/10/28 01:44:57;;;;;;;9.27;7.00;;;;;;;13.52;100.00;100867.69;5028450;28;20493;-50
2022/10/28 01:47:58;;;;;;;40.87;5.67;;;;;;;13.52;100.00;100867.69;5028672;28;20426;-51
2022/10/28 01:50:48;;;;;;;6.13;5.63;;;;;;;13.42;100.00;100860.88;4991441;28;20462;-50
2022/10/28 01:53:19;;;;;;;6.00;5.50;;;;;;;13.54;100.00;100857.84;5033565;28;20494;-50
2022/10/28 01:55:50;;;;;;;6.00;5.53;;;;;;;13.50;100.00;100858.00;5032215;28;20815;-50
2022/10/28 01:58:22;;;;;;;12.73;5.93;;;;;;;13.47;100.00;100858.97;5032071;28;20455;-51
2022/10/28 02:00:49;;;;;;;7.83;6.10;;;;;;;13.72;100.00;100860.88;5031776;28;21315;-49
2022/10/28 02:03:16;;;;;;;37.43;7.20;;;;;;;13.68;100.00;100865.41;5032056;28;20467;-53
2022/10/28 02:05:53;;;;;;;28.70;7.30;;;;;;;13.48;100.00;100865.19;5031887;28;20463;-51
2022/10/28 02:08:53;;;;;;;7.80;5.80;;;;;;;13.46;100.00;100859.88;5031852;28;20475;-52
2022/10/28 02:11:32;;;;;;;40.10;7.17;;;;;;;13.44;100.00;100856.41;5031068;28;20451;-50
2022/10/28 02:14:17;;;;;;;11.37;6.93;;;;;;;13.27;100.00;100850.69;5031405;28;20499;-50
2022/10/28 02:16:47;;;;;;;7.90;6.17;;;;;;;13.32;100.00;100848.75;5031513;28;20455;-50
2022/10/28 02:19:34;;;;;;;6.43;6.03;;;;;;;13.28;100.00;100847.97;5031564;28;21009;-52
2022/10/28 02:22:10;;;;;;;7.37;5.70;;;;;;;13.33;100.00;100847.84;5032049;28;20471;-50
2022/10/28 02:24:46;;;;;;;7.50;6.90;;;;;;;13.36;100.00;100842.41;5031485;28;20850;-50
2022/10/28 02:27:31;;;;;;;12.90;8.30;;;;;;;13.34;100.00;100834.44;5018025;28;20452;-50
2022/10/28 02:30:06;;;;;;;6.53;6.07;;;;;;;13.38;100.00;100829.00;5031579;28;20476;-50
2022/10/28 02:32:38;;;;;;;5.37;5.07;;;;;;;13.39;100.00;100814.72;5023584;28;20883;-50
2022/10/28 02:35:13;;;;;;;9.43;8.53;;;;;;;13.37;100.00;100808.56;5028810;28;20468;-49
2022/10/28 02:37:42;;;;;;;10.80;5.90;;;;;;;13.43;100.00;100808.34;5031152;28;20451;-50
2022/10/28 02:40:13;;;;;;;9.27;6.40;;;;;;;13.37;100.00;100808.56;5031140;28;20460;-50
2022/10/28 02:42:46;;;;;;;8.10;7.30;;;;;;;13.33;100.00;100805.13;5018476;28;20550;-50
2022/10/28 02:45:17;;;;;;;7.60;6.83;;;;;;;13.34;100.00;100806.88;5031210;28;20529;-50
2022/10/28 02:48:08;;;;;;;9.37;7.60;;;;;;;13.53;100.00;100804.47;5031095;28;20498;-50
2022/10/28 02:50:40;;;;;;;9.30;7.03;;;;;;;13.44;100.00;100807.44;5030923;28;20690;-52
2022/10/28 02:53:15;;;;;;;5.13;4.60;;;;;;;13.65;100.00;100804.06;5030845;28;20547;-51
2022/10/28 02:55:47;;;;;;;10.30;7.17;;;;;;;13.77;100.00;100808.13;5031165;28;20452;-51
2022/10/28 02:58:14;;;;;;;5.90;5.37;;;;;;;13.80;100.00;100808.03;5031169;28;20494;-51
2022/10/28 03:00:44;;;;;;;6.03;5.47;;;;;;;13.85;100.00;100808.75;5029014;28;20451;-50
2022/10/28 03:03:10;;;;;;;10.17;6.37;;;;;;;13.97;100.00;100811.00;5031013;28;20586;-50
2022/10/28 03:05:37;;;;;;;13.00;7.10;;;;;;;14.17;100.00;100816.53;5030715;28;20555;-50
2022/10/28 03:08:04;;;;;;;5.13;4.63;;;;;;;14.04;100.00;100825.91;5030863;28;20451;-52
2022/10/28 03:10:30;;;;;;;9.83;7.50;;;;;;;13.87;100.00;100834.50;5030080;28;20525;-53
2022/10/28 03:12:56;;;;;;;6.10;5.60;;;;;;;13.74;100.00;100833.16;5030551;28;20491;-53
2022/10/28 03:15:23;;;;;;;6.73;4.60;;;;;;;13.91;100.00;100825.44;5031275;28;20503;-52
2022/10/28 03:17:49;;;;;;;16.57;6.60;;;;;;;13.62;100.00;100830.88;5031010;28;20459;-52
2022/10/28 03:20:17;;;;;;;12.97;4.80;;;;;;;13.61;100.00;100816.66;5030361;28;21295;-52
2022/10/28 03:22:43;;;;;;;6.00;5.00;;;;;;;13.62;100.00;100825.53;5030553;28;20455;-53
2022/10/28 03:25:10;;;;;;;28.50;6.20;;;;;;;13.63;100.00;100841.53;5027816;28;20551;-52
2022/10/28 03:27:40;;;;;;;5.77;5.27;;;;;;;13.58;100.00;100832.78;5019667;28;20452;-52
2022/10/28 03:30:06;;;;;;;7.37;6.67;;;;;;;13.60;100.00;100833.63;5030506;28;20902;-52
2022/10/28 03:32:33;;;;;;;9.27;6.27;;;;;;;13.62;100.00;100830.88;5022466;28;20522;-52
2022/10/28 03:34:59;;;;;;;8.87;6.57;;;;;;;13.64;100.00;100821.91;5026978;28;20479;-52
2022/10/28 03:37:26;;;;;;;6.13;5.73;;;;;;;13.62;100.00;100829.09;5030564;28;20467;-52
2022/10/28 03:39:52;;;;;;;12.00;6.30;;;;;;;13.58;100.00;100831.91;5030416;28;20448;-53
2022/10/28 03:42:18;;;;;;;7.47;5.20;;;;;;;13.52;100.00;100824.09;5024224;28;20506;-52
2022/10/28 03:44:45;;;;;;;5.33;5.00;;;;;;;13.49;100.00;100809.03;5030402;28;20530;-52
2022/10/28 03:47:11;;;;;;;9.00;6.23;;;;;;;13.38;100.00;100807.63;5030083;28;20843;-52
2022/10/28 03:49:37;;;;;;;5.23;4.93;;;;;;;13.38;100.00;100800.50;5030111;28;20455;-52
2022/10/28 03:52:04;;;;;;;10.37;4.40;;;;;;;13.36;100.00;100806.81;5030221;28;20486;-52
2022/10/28 03:54:30;;;;;;;4.23;3.63;;;;;;;13.38;100.00;100815.63;5029468;28;20549;-52
2022/10/28 03:56:56;;;;;;;4.40;3.83;;;;;;;13.41;100.00;100816.41;5029848;28;20455;-52
2022/10/28 03:59:23;;;;;;;7.33;6.10;;;;;;;13.32;100.00;100809.59;5030023;28;20828;-52
2022/10/28 04:01:49;;;;;;;6.90;5.73;;;;;;;13.41;100.00;100807.53;5029827;28;20456;-52
2022/10/28 04:04:16;;;;;;;4.90;4.53;;;;;;;13.36;100.00;100813.03;5029659;28;20976;-52
2022/10/28 04:06:42;;;;;;;6.03;5.57;;;;;;;13.30;100.00;100813.22;5029941;28;20480;-52
2022/10/28 04:09:09;;;;;;;6.73;5.30;;;;;;;13.19;100.00;100810.88;5029342;28;20430;-51
2022/10/28 04:11:35;;;;;;;5.40;4.90;;;;;;;13.08;100.00;100812.09;5018059;28;20453;-51
2022/10/28 04:14:01;;;;;;;16.03;5.50;;;;;;;13.11;100.00;100809.34;5028292;28;20503;-52
2022/10/28 04:16:28;;;;;;;3.17;2.97;;;;;;;12.91;100.00;100802.81;5030246;28;20451;-52
2022/10/28 04:18:54;;;;;;;20.63;3.27;;;;;;;12.86;100.00;100806.53;5029418;28;20509;-52
2022/10/28 04:21:21;;;;;;;7.40;4.20;;;;;;;12.85;100.00;100812.78;5029459;28;20498;-53
2022/10/28 04:23:47;;;;;;;6.70;4.30;;;;;;;12.66;100.00;100815.13;5029063;28;20471;-52
2022/10/28 04:26:14;;;;;;;6.30;4.70;;;;;;;12.89;100.00;100812.66;5018314;28;20457;-52
2022/10/28 04:28:40;;;;;;;9.53;4.70;;;;;;;12.75;100.00;100815.75;5027531;28;20460;-52
2022/10/28 04:31:08;;;;;;;7.00;5.80;;;;;;;12.63;100.00;100816.09;5029534;28;20455;-52
2022/10/28 04:33:34;;;;;;;4.03;3.43;;;;;;;12.56;100.00;100811.81;5017803;28;20499;-53
2022/10/28 04:36:01;;;;;;;5.87;3.30;;;;;;;12.69;100.00;100804.34;5029154;28;20898;-52
2022/10/28 04:38:27;;;;;;;10.10;4.30;;;;;;;12.48;100.00;100821.84;5028683;28;20557;-52
2022/10/28 04:40:54;;;;;;;5.67;4.70;;;;;;;12.31;100.00;100822.28;5023657;28;20452;-52
2022/10/28 04:43:20;;;;;;;6.10;5.50;;;;;;;12.29;100.00;100812.59;5028263;28;20471;-52
2022/10/28 04:45:46;;;;;;;6.03;5.53;;;;;;;12.30;100.00;100801.88;5029147;28;20505;-52
2022/10/28 04:48:13;;;;;;;7.93;5.30;;;;;;;12.29;100.00;100807.25;5028939;28;20505;-52
2022/10/28 04:50:39;;;;;;;6.50;5.90;;;;;;;12.21;100.00;100818.16;5028962;28;20459;-52
2022/10/28 04:53:06;;;;;;;4.77;4.30;;;;;;;12.25;100.00;100803.81;5028341;28;20455;-52
2022/10/28 04:55:32;;;;;;;7.80;5.43;;;;;;;12.33;100.00;100800.91;5029100;28;20979;-53
2022/10/28 04:57:59;;;;;;;4.07;3.87;;;;;;;12.26;100.00;100805.56;5029016;28;20456;-52
2022/10/28 05:00:27;;;;;;;12.60;5.07;;;;;;;12.03;100.00;100799.97;5029112;28;20448;-52
2022/10/28 05:02:54;;;;;;;8.20;4.80;;;;;;;12.04;100.00;100786.59;5028699;28;20427;-52
2022/10/28 05:05:21;;;;;;;3.50;3.10;;;;;;;12.14;100.00;100785.44;5028889;28;20482;-51
2022/10/28 05:07:47;;;;;;;5.67;4.63;;;;;;;12.27;100.00;100775.31;5028924;28;20503;-52
2022/10/28 05:10:17;;;;;;;5.80;5.23;;;;;;;12.13;100.00;100770.38;5028902;28;21014;-54
2022/10/28 05:12:44;;;;;;;11.20;7.67;;;;;;;12.38;100.00;100775.03;5003512;28;20463;-53
2022/10/28 05:15:12;;;;;;;14.70;4.27;;;;;;;12.50;100.00;100784.47;5028805;28;20502;-53
2022/10/28 05:17:43;;;;;;;8.20;3.80;;;;;;;12.58;100.00;100772.66;5028866;28;20459;-54
2022/10/28 05:20:10;;;;;;;5.57;5.10;;;;;;;12.64;100.00;100777.81;5028585;28;20451;-53
2022/10/28 05:22:37;;;;;;;7.40;4.63;;;;;;;12.70;100.00;100772.28;5028965;28;20620;-54
2022/10/28 05:25:04;;;;;;;8.10;5.30;;;;;;;12.69;100.00;100781.22;5030192;28;20528;-55
2022/10/28 05:27:31;;;;;;;9.00;6.80;;;;;;;12.64;100.00;100771.63;5021607;28;20479;-53
2022/10/28 05:29:57;;;;;;;21.17;7.20;;;;;;;12.68;100.00;100773.25;5032630;28;20430;-54
2022/10/28 05:32:24;;;;;;;9.90;5.33;;;;;;;12.71;100.00;100774.03;5025959;28;20468;-53
2022/10/28 05:34:50;;;;;;;6.00;5.50;;;;;;;12.75;100.00;100773.06;5027579;28;21023;-53
2022/10/28 05:37:16;;;;;;;6.50;6.00;;;;;;;12.72;100.00;100777.59;5032809;28;21311;-54
2022/10/28 05:39:43;;;;;;;6.83;4.57;;;;;;;12.75;100.00;100785.53;5032368;28;20455;-53
2022/10/28 05:42:09;;;;;;;8.83;6.70;;;;;;;12.77;100.00;100773.00;5025642;28;20501;-52
2022/10/28 05:44:37;;;;;;;5.40;4.87;;;;;;;12.78;100.00;100774.75;5032637;28;20471;-51
2022/10/28 05:47:03;;;;;;;20.77;6.47;;;;;;;12.82;100.00;100771.06;5032294;28;20509;-52
2022/10/28 05:49:30;;;;;;;13.23;6.67;;;;;;;12.82;100.00;100770.19;5032240;28;20448;-52
2022/10/28 05:51:56;;;;;;;5.80;5.43;;;;;;;12.75;100.00;100758.84;5032553;28;20451;-52
2022/10/28 05:54:23;;;;;;;6.77;5.97;;;;;;;12.77;100.00;100772.13;5031677;28;20520;-52
2022/10/28 05:56:49;;;;;;;4.90;4.40;;;;;;;12.77;100.00;100770.34;5032418;28;20441;-53
2022/10/28 05:59:15;;;;;;;8.70;5.20;;;;;;;12.60;100.00;100757.47;5032026;28;20455;-53
2022/10/28 06:01:42;;;;;;;5.30;4.37;;;;;;;12.79;100.00;100767.63;5031996;28;20430;-53
2022/10/28 06:04:08;;;;;;;9.60;4.43;;;;;;;12.88;100.00;100772.66;5032224;28;20485;-53
2022/10/28 06:06:35;;;;;;;3.13;2.90;;;;;;;12.87;100.00;100773.56;5032168;28;20438;-53
2022/10/28 06:09:01;;;;;;;9.23;6.10;;;;;;;12.88;100.00;100780.66;5031997;28;20859;-53
2022/10/28 06:11:28;;;;;;;15.23;4.80;;;;;;;12.79;100.00;100779.16;5031244;28;21003;-52
2022/10/28 06:13:54;;;;;;;7.33;4.07;;;;;;;12.83;100.00;100778.16;5031448;28;20553;-53
2022/10/28 06:16:20;;;;;;;3.83;3.53;;;;;;;12.83;100.00;100775.47;5032175;28;20506;-52
2022/10/28 06:18:47;;;;;;;6.20;5.70;;;;;;;12.71;100.00;100779.38;5031818;28;20430;-52
2022/10/28 06:21:13;;;;;;;6.10;4.60;;;;;;;12.79;100.00;100778.28;5030326;28;20908;-52
2022/10/28 06:23:40;;;;;;;6.20;3.93;;;;;;;12.87;100.00;100777.13;5031640;28;21266;-53
2022/10/28 06:26:06;;;;;;;4.90;4.50;;;;;;;12.90;100.00;100784.19;5020440;28;20477;-53
2022/10/28 06:28:32;;;;;;;7.73;6.67;;;;;;;12.95;100.00;100793.78;5028594;28;20463;-53
2022/10/28 06:31:08;;;;;;;11.23;5.27;;;;;;;13.06;100.00;100782.78;5031531;28;20512;-53
2022/10/28 06:33:34;;;;;;;32.07;4.23;;;;;;;13.02;100.00;100792.69;5019825;28;20887;-53
2022/10/28 06:36:01;;;;;;;5.40;3.40;;;;;;;13.04;100.00;100800.66;5032666;28;20455;-53
2022/10/28 06:38:28;;;;;;;6.30;5.70;;;;;;;12.97;100.00;100801.75;5013645;28;20971;-53
2022/10/28 06:40:57;;;;;;;9.00;6.17;;;;;;;12.95;100.00;100798.25;5025989;28;20804;-52
2022/10/28 06:43:23;;;;;;;14.83;4.67;;;;;;;12.99;100.00;100787.44;5029573;28;20479;-53
2022/10/28 06:45:55;;;;;;;16.73;5.90;;;;;;;13.08;100.00;100794.28;5031546;28;20498;-53
2022/10/28 06:48:22;;;;;;;4.80;4.30;;;;;;;13.13;100.00;100804.81;5031248;28;20505;-53
2022/10/28 06:50:48;;;;;;;11.10;6.00;;;;;;;13.18;100.00;100800.22;5031151;28;20932;-53
2022/10/28 06:53:15;;;;;;;5.43;4.93;;;;;;;13.13;100.00;100800.34;5031009;28;20472;-53
2022/10/28 06:55:41;;;;;;;10.17;5.40;;;;;;;13.12;100.00;100808.41;5030665;28;20504;-53
2022/10/28 06:58:08;;;;;;;6.20;4.90;;;;;;;13.12;100.00;100816.41;5030792;28;20451;-53
2022/10/28 07:00:35;;;;;;;4.20;4.00;;;;;;;13.16;100.00;100813.63;5031354;28;20452;-53
2022/10/28 07:03:01;;;;;;;3.80;3.50;;;;;;;13.20;100.00;100811.75;5030798;28;20965;-53
2022/10/28 07:05:28;;;;;;;7.30;5.53;;;;;;;13.20;100.00;100804.63;5030973;28;20451;-53
2022/10/28 07:07:57;;;;;;;5.63;4.90;;;;;;;13.11;100.00;100809.34;5030638;28;20943;-53
2022/10/28 07:10:23;;;;;;;16.80;4.20;;;;;;;13.14;100.00;100811.91;5029341;28;20452;-53
2022/10/28 07:12:51;;;;;;;5.83;5.40;;;;;;;13.26;100.00;100817.78;5003948;28;20509;-53
2022/10/28 07:15:18;;;;;;;9.73;5.93;;;;;;;13.50;100.00;100817.94;5030421;28;20491;-53
2022/10/28 07:17:51;;;;;;;6.93;4.33;;;;;;;13.41;100.00;100816.41;5030865;28;20452;-53
2022/10/28 07:20:17;;;;;;;3.80;3.50;;;;;;;13.30;100.00;100808.75;5030644;28;20452;-53
2022/10/28 07:22:43;;;;;;;20.43;6.40;;;;;;;13.34;100.00;100818.41;5030494;28;20452;-53
2022/10/28 07:25:10;;;;;;;7.17;6.57;;;;;;;13.40;100.00;100816.47;5027730;28;20476;-54
2022/10/28 07:27:36;;;;;;;4.37;3.97;;;;;;;13.44;100.00;100820.81;5020026;28;20481;-54
2022/10/28 07:30:03;;;;;;;4.63;4.33;;;;;;;13.47;100.00;100823.38;5030213;28;20502;-53
2022/10/28 07:32:32;;;;;;;7.50;5.13;;;;;;;13.43;100.00;100827.03;5023195;28;20464;-54
2022/10/28 07:34:59;;;;;;;5.30;4.90;;;;;;;13.42;100.00;100828.84;5027075;28;20564;-53
2022/10/28 07:37:25;;;;;;;9.00;5.70;;;;;;;13.49;100.00;100814.38;5030242;28;20455;-53
2022/10/28 07:39:52;;;;;;;6.30;4.93;;;;;;;13.47;100.00;100826.91;5030028;28;20455;-53
2022/10/28 07:42:18;;;;;;;10.33;6.10;;;;;;;13.58;100.00;100826.56;5022813;28;20491;-54
2022/10/28 07:44:44;;;;;;;6.33;5.87;;;;;;;13.54;100.00;100828.44;5030270;28;20531;-53
2022/10/28 07:47:11;;;;;;;7.17;6.13;;;;;;;13.54;100.00;100835.59;5029110;28;20972;-53
2022/10/28 07:49:37;;;;;;;10.93;5.80;;;;;;;13.50;100.00;100834.81;5029892;28;21018;-53
2022/10/28 07:52:03;;;;;;;7.83;6.40;;;;;;;13.61;100.00;100826.47;5030128;28;20455;-53
2022/10/28 07:54:30;;;;;;;6.63;6.17;;;;;;;13.57;100.00;100822.16;5029433;28;21019;-53
2022/10/28 07:56:57;;;;;;;7.47;5.63;;;;;;;13.61;100.00;100827.34;5030168;28;20506;-54
2022/10/28 07:59:24;;;;;;;5.40;4.93;;;;;;;13.61;100.00;100823.81;5029910;28;20513;-53
2022/10/28 08:01:52;;;;;;;6.47;5.87;;;;;;;13.64;100.00;100823.69;5029903;28;20430;-54
2022/10/28 08:04:19;;;;;;;9.37;5.43;;;;;;;13.78;100.00;100833.94;5029511;28;20587;-54
2022/10/28 08:06:45;;;;;;;5.33;3.50;;;;;;;13.87;100.00;100830.97;5030022;28;20460;-51
2022/10/28 08:09:12;;;;;;;4.77;4.37;;;;;;;13.85;100.00;100831.00;5029895;28;20539;-54
2022/10/28 08:11:38;;;;;;;11.87;6.30;;;;;;;13.98;100.00;100827.91;5029235;28;20842;-53
2022/10/28 08:14:04;;;;;;;10.17;5.73;;;;;;;14.05;100.00;100832.13;5029437;28;20904;-53
2022/10/28 08:16:31;;;;;;;8.77;4.70;;;;;;;14.08;100.00;100840.91;5029568;28;20451;-53
2022/10/28 08:18:57;;;;;;;6.77;4.80;;;;;;;14.42;100.00;100837.09;5029400;28;20533;-53
2022/10/28 08:21:25;;;;;;;4.27;4.00;;;;;;;14.28;100.00;100850.94;5029289;28;20968;-53
2022/10/28 08:23:53;;;;;;;7.90;6.20;;;;;;;14.48;100.00;100839.56;5027974;28;20471;-53
2022/10/28 08:26:20;;;;;;;10.23;6.23;;;;;;;14.48;100.00;100852.94;5017320;28;20448;-53
2022/10/28 08:28:46;;;;;;;9.60;4.73;;;;;;;14.67;100.00;100842.47;5028282;28;20459;-53
2022/10/28 08:31:13;;;;;;;4.67;4.37;;;;;;;14.68;100.00;100853.09;5029401;28;20426;-53
2022/10/28 08:33:44;;;;;;;3.93;3.63;;;;;;;14.71;100.00;100854.78;5017482;28;20475;-53
2022/10/28 08:36:12;;;;;;;4.13;3.73;;;;;;;14.77;100.00;100851.88;5029439;28;20495;-53
2022/10/28 08:38:38;;;;;;;6.40;3.77;;;;;;;14.79;100.00;100833.94;5029235;28;20463;-53
2022/10/28 08:41:38;;;;;;;4.33;3.97;;;;;;;14.73;100.00;100842.22;5021835;28;20478;-54
2022/10/28 08:44:43;;;;;;;4.20;3.97;;;;;;;14.67;100.00;100834.44;5029071;28;20996;-53
2022/10/28 08:47:32;;;;;;;8.60;4.23;;;;;;;14.68;100.00;100828.16;5029406;28;20447;-53
2022/10/28 08:50:10;;;;;;;3.87;3.57;;;;;;;14.78;100.00;100837.56;5029544;28;20915;-53
2022/10/28 08:52:44;;;;;;;7.40;4.77;;;;;;;14.89;100.00;100838.03;5028947;28;20451;-53
2022/10/28 08:55:19;;;;;;;3.83;3.43;;;;;;;14.97;100.00;100835.97;5029839;28;20568;-51
2022/10/28 08:57:58;;;;;;;4.60;3.83;;;;;;;15.25;100.00;100832.22;5029951;28;20520;-51
2022/10/28 09:00:29;;;;;;;7.50;4.77;;;;;;;15.03;100.00;100835.72;5028865;28;20456;-53
2022/10/28 09:03:05;;;;;;;4.20;3.90;;;;;;;15.13;100.00;100833.56;5028619;28;20433;-52
2022/10/28 09:05:32;;;;;;;4.83;3.87;;;;;;;15.44;100.00;100841.25;5029075;28;20425;-54
2022/10/28 09:08:01;;;;;;;3.77;3.47;;;;;;;15.50;100.00;100838.34;5029154;28;20456;-53
2022/10/28 09:10:59;;;;;;;4.70;4.30;;;;;;;15.59;100.00;100834.41;5027672;28;20480;-54
2022/10/28 09:13:29;;;;;;;21.73;4.70;;;;;;;15.79;100.00;100823.78;5015598;28;21008;-54
2022/10/28 09:16:10;;;;;;;5.07;4.60;;;;;;;15.73;100.00;100820.47;5042791;28;20490;-57
2022/10/28 09:18:53;;;;;;;8.30;5.73;;;;;;;15.89;100.00;100816.22;5045429;28;20440;-56
2022/10/28 09:21:30;;;;;;;24.70;5.17;;;;;;;16.08;100.00;100827.06;5043626;28;20434;-56
2022/10/28 09:24:02;;;;;;;5.43;4.83;;;;;;;16.17;100.00;100830.22;5044579;28;20475;-55
2022/10/28 09:26:58;;;;;;;11.63;6.90;;;;;;;16.44;100.00;100808.47;5030706;28;20419;-55
2022/10/28 09:29:30;;;;;;;4.70;4.23;;;;;;;16.83;100.00;100838.94;5025282;28;20483;-56
2022/10/28 09:32:16;;;;;;;5.50;5.10;;;;;;;16.94;100.00;100829.50;5038771;28;20431;-57
2022/10/28 09:34:53;;;;;;;9.13;5.50;;;;;;;17.00;100.00;100832.81;5036120;28;20842;-56
2022/10/28 09:37:36;;;;;;;6.57;4.47;;;;;;;17.29;100.00;100836.81;5040452;28;20426;-56
2022/10/28 09:40:20;;;;;;;4.63;4.20;;;;;;;16.92;100.00;100821.53;5039381;28;20911;-57
2022/10/28 09:42:57;;;;;;;4.90;4.00;;;;;;;17.01;100.00;100815.75;5026680;28;20482;-53
2022/10/28 09:45:29;;;;;;;11.50;4.50;;;;;;;17.26;100.00;100826.19;5015388;28;20426;-55
2022/10/28 09:48:01;;;;;;;9.77;4.50;;;;;;;17.48;100.00;100829.59;5037566;28;20458;-55
2022/10/28 09:50:30;;;;;;;7.67;4.53;;;;;;;17.48;100.00;100828.72;5036098;28;21096;-55
2022/10/28 09:53:34;;;;;;;5.07;3.27;;;;;;;17.52;100.00;100832.13;5035928;28;20429;-55
2022/10/28 09:56:03;;;;;;;4.70;4.50;;;;;;;17.76;100.00;100820.19;5035230;28;20462;-54
2022/10/28 09:58:31;;;;;;;6.40;5.40;;;;;;;17.70;100.00;100823.22;5034082;28;20438;-55
2022/10/28 10:00:58;;;;;;;5.37;5.07;;;;;;;17.70;100.00;100831.28;5034452;28;20462;-55
2022/10/28 10:03:24;;;;;;;4.40;4.10;;;;;;;18.02;100.00;100822.44;5032813;28;20974;-55
2022/10/28 10:05:55;;;;;;;5.37;4.90;;;;;;;18.03;100.00;100821.50;5030753;28;20451;-54
2022/10/28 10:08:22;;;;;;;8.93;4.03;;;;;;;18.12;100.00;100817.47;5034131;28;20430;-55
2022/10/28 10:10:53;;;;;;;5.43;4.93;;;;;;;18.19;100.00;100820.72;5033759;28;20455;-54
2022/10/28 10:13:24;;;;;;;5.43;5.13;;;;;;;17.94;100.00;100807.63;5036043;28;20462;-54
2022/10/28 10:15:54;;;;;;;13.57;5.90;;;;;;;18.05;100.00;100822.28;5035488;28;20487;-54
2022/10/28 10:18:24;;;;;;;9.20;4.87;;;;;;;18.13;100.00;100812.97;5035369;28;20848;-54
2022/10/28 10:20:59;;;;;;;14.47;4.97;;;;;;;18.20;100.00;100804.47;5035022;28;20495;-55
2022/10/28 10:23:29;;;;;;;7.70;4.43;;;;;;;18.03;100.00;100808.06;5034300;28;20951;-55
2022/10/28 10:26:00;;;;;;;8.70;4.77;;;;;;;18.32;100.00;100805.66;5026077;28;20423;-56
2022/10/28 10:28:27;;;;;;;3.73;3.40;;;;;;;18.26;100.00;100806.00;5031036;28;20427;-56
2022/10/28 10:30:56;;;;;;;3.90;3.60;;;;;;;18.28;100.00;100807.66;5034828;28;20827;-55
2022/10/28 10:33:27;;;;;;;4.47;4.27;;;;;;;18.26;100.00;100803.31;5022927;28;20879;-56
2022/10/28 10:36:22;;;;;;;5.10;4.90;;;;;;;18.41;100.00;100797.13;5034359;28;21298;-56
2022/10/28 10:38:54;;;;;;;6.43;4.50;;;;;;;18.52;100.00;100800.13;5009986;28;20519;-55
2022/10/28 10:41:41;;;;;;;5.43;3.27;;;;;;;18.57;100.00;100800.72;5025985;28;20493;-54
2022/10/28 10:44:20;;;;;;;4.60;4.30;;;;;;;18.66;100.00;100801.25;5031419;28;20476;-55
2022/10/28 10:46:58;;;;;;;4.03;3.63;;;;;;;18.59;100.00;100800.66;5031615;28;20923;-55
2022/10/28 10:49:35;;;;;;;4.57;4.13;;;;;;;18.61;100.00;100798.75;5032094;28;20437;-56
2022/10/28 10:52:08;;;;;;;4.37;4.00;;;;;;;18.88;100.00;100802.66;5031222;28;20538;-55
2022/10/28 10:54:36;;;;;;;3.70;3.20;;;;;;;18.78;100.00;100789.81;5031814;28;20501;-56
2022/10/28 10:57:21;;;;;;;3.90;3.60;;;;;;;19.05;100.00;100787.38;5031591;28;20451;-56
2022/10/28 10:59:51;;;;;;;5.40;4.70;;;;;;;19.14;100.00;100785.06;5031627;28;20428;-55
2022/10/28 11:02:27;;;;;;;4.23;3.93;;;;;;;19.41;100.00;100774.53;5031776;28;20456;-55
2022/10/28 11:04:57;;;;;;;12.10;4.00;;;;;;;19.15;100.00;100776.00;5031449;28;20972;-56
2022/10/28 11:07:24;;;;;;;3.93;3.73;;;;;;;19.18;100.00;100773.13;5031975;28;20923;-56
2022/10/28 11:09:51;;;;;;;7.93;4.03;;;;;;;19.27;100.00;100765.50;5031428;28;20455;-54
2022/10/28 11:12:31;;;;;;;3.67;3.47;;;;;;;19.35;100.00;100761.41;5030725;28;20458;-55
2022/10/28 11:15:03;;;;;;;5.23;3.83;;;;;;;19.31;100.00;100751.75;5032869;28;21030;-56
2022/10/28 11:17:32;;;;;;;6.20;3.20;;;;;;;19.39;100.00;100751.31;5034156;28;20476;-56
2022/10/28 11:20:22;;;;;;;3.23;2.87;;;;;;;19.57;100.00;100752.97;5033399;28;20586;-56
2022/10/28 11:23:16;;;;;;;5.30;3.90;;;;;;;19.80;100.00;100755.19;5032426;28;20447;-55
2022/10/28 11:25:48;;;;;;;3.10;2.90;;;;;;;19.62;100.00;100741.94;5023743;28;20917;-55
2022/10/28 11:28:37;;;;;;;7.80;2.97;;;;;;;19.84;100.00;100739.69;5025118;28;20503;-55
2022/10/28 11:31:31;;;;;;;6.10;3.33;;;;;;;19.78;100.00;100749.03;5030534;28;20455;-56
2022/10/28 11:34:25;;;;;;;3.00;2.40;;;;;;;20.25;100.00;100755.19;5019486;28;20480;-56